sensor_id;sensor_type;location;lat;lon;timestamp;P1;durP1;ratioP1;P2;durP2;ratioP2
70842;SDS011;58469;52.312;16.970;2024-03-17T00:01:25;4.87;;;2.67;;
70842;SDS011;58469;52.312;16.970;2024-03-17T00:04:25;7.20;;;3.00;;
70842;SDS011;58469;52.312;16.970;2024-03-17T00:07:27;7.32;;;2.72;;
70842;SDS011;58469;52.312;16.970;2024-03-17T00:10:27;8.40;;;2.90;;
70842;SDS011;58469;52.312;16.970;2024-03-17T00:13:28;9.17;;;4.07;;
70842;SDS011;58469;52.312;16.970;2024-03-17T00:16:28;7.57;;;2.80;;
70842;SDS011;58469;52.312;16.970;2024-03-17T00:19:28;8.63;;;2.92;;
70842;SDS011;58469;52.312;16.970;2024-03-17T00:22:29;6.13;;;2.77;;
70842;SDS011;58469;52.312;16.970;2024-03-17T00:25:29;6.00;;;2.80;;
70842;SDS011;58469;52.312;16.970;2024-03-17T00:28:29;6.97;;;2.87;;
70842;SDS011;58469;52.312;16.970;2024-03-17T00:31:30;5.93;;;2.90;;
70842;SDS011;58469;52.312;16.970;2024-03-17T00:34:31;8.18;;;2.95;;
70842;SDS011;58469;52.312;16.970;2024-03-17T00:37:32;8.17;;;3.10;;
70842;SDS011;58469;52.312;16.970;2024-03-17T00:40:33;6.53;;;2.63;;
70842;SDS011;58469;52.312;16.970;2024-03-17T00:43:33;9.80;;;2.33;;
70842;SDS011;58469;52.312;16.970;2024-03-17T00:46:33;5.73;;;2.87;;
70842;SDS011;58469;52.312;16.970;2024-03-17T00:49:34;10.50;;;3.50;;
70842;SDS011;58469;52.312;16.970;2024-03-17T00:52:34;6.20;;;2.45;;
70842;SDS011;58469;52.312;16.970;2024-03-17T00:55:35;6.03;;;2.50;;
70842;SDS011;58469;52.312;16.970;2024-03-17T00:58:35;7.27;;;2.57;;
70842;SDS011;58469;52.312;16.970;2024-03-17T01:01:36;6.60;;;2.40;;
70842;SDS011;58469;52.312;16.970;2024-03-17T01:04:36;7.60;;;2.43;;
70842;SDS011;58469;52.312;16.970;2024-03-17T01:07:36;6.68;;;2.13;;
70842;SDS011;58469;52.312;16.970;2024-03-17T01:10:40;8.80;;;2.60;;
70842;SDS011;58469;52.312;16.970;2024-03-17T01:13:41;5.47;;;2.03;;
70842;SDS011;58469;52.312;16.970;2024-03-17T01:16:41;13.27;;;2.60;;
70842;SDS011;58469;52.312;16.970;2024-03-17T01:19:42;8.53;;;2.50;;
70842;SDS011;58469;52.312;16.970;2024-03-17T01:22:42;8.57;;;2.90;;
70842;SDS011;58469;52.312;16.970;2024-03-17T01:25:44;4.97;;;2.67;;
70842;SDS011;58469;52.312;16.970;2024-03-17T01:28:45;8.32;;;2.30;;
70842;SDS011;58469;52.312;16.970;2024-03-17T01:31:45;9.07;;;3.63;;
70842;SDS011;58469;52.312;16.970;2024-03-17T01:34:46;10.30;;;2.22;;
70842;SDS011;58469;52.312;16.970;2024-03-17T01:37:47;8.43;;;2.47;;
70842;SDS011;58469;52.312;16.970;2024-03-17T01:40:48;7.03;;;2.40;;
70842;SDS011;58469;52.312;16.970;2024-03-17T01:43:48;5.28;;;2.08;;
70842;SDS011;58469;52.312;16.970;2024-03-17T01:46:49;4.13;;;2.17;;
70842;SDS011;58469;52.312;16.970;2024-03-17T01:49:51;6.43;;;1.90;;
70842;SDS011;58469;52.312;16.970;2024-03-17T01:52:53;5.73;;;2.50;;
70842;SDS011;58469;52.312;16.970;2024-03-17T01:55:56;7.20;;;3.17;;
70842;SDS011;58469;52.312;16.970;2024-03-17T01:58:59;6.47;;;3.38;;
70842;SDS011;58469;52.312;16.970;2024-03-17T02:02:02;6.82;;;2.58;;
70842;SDS011;58469;52.312;16.970;2024-03-17T02:05:02;7.05;;;2.70;;
70842;SDS011;58469;52.312;16.970;2024-03-17T02:08:04;9.10;;;2.58;;
70842;SDS011;58469;52.312;16.970;2024-03-17T02:11:07;8.63;;;2.90;;
70842;SDS011;58469;52.312;16.970;2024-03-17T02:14:42;9.80;;;2.80;;
70842;SDS011;58469;52.312;16.970;2024-03-17T02:17:42;7.03;;;2.60;;
70842;SDS011;58469;52.312;16.970;2024-03-17T02:20:43;5.82;;;2.15;;
70842;SDS011;58469;52.312;16.970;2024-03-17T02:23:55;5.90;;;2.30;;
70842;SDS011;58469;52.312;16.970;2024-03-17T02:26:56;7.15;;;2.30;;
70842;SDS011;58469;52.312;16.970;2024-03-17T02:29:56;5.97;;;2.30;;
70842;SDS011;58469;52.312;16.970;2024-03-17T02:32:56;4.53;;;1.90;;
70842;SDS011;58469;52.312;16.970;2024-03-17T02:35:57;5.73;;;2.00;;
70842;SDS011;58469;52.312;16.970;2024-03-17T02:38:57;5.63;;;2.20;;
70842;SDS011;58469;52.312;16.970;2024-03-17T02:42:16;7.53;;;2.50;;
70842;SDS011;58469;52.312;16.970;2024-03-17T02:45:17;5.93;;;2.37;;
70842;SDS011;58469;52.312;16.970;2024-03-17T02:48:17;7.97;;;2.03;;
70842;SDS011;58469;52.312;16.970;2024-03-17T02:51:18;5.47;;;1.77;;
70842;SDS011;58469;52.312;16.970;2024-03-17T02:54:20;6.20;;;2.10;;
70842;SDS011;58469;52.312;16.970;2024-03-17T02:57:22;4.90;;;2.22;;
70842;SDS011;58469;52.312;16.970;2024-03-17T03:00:24;5.25;;;1.67;;
70842;SDS011;58469;52.312;16.970;2024-03-17T03:03:25;9.43;;;2.00;;
70842;SDS011;58469;52.312;16.970;2024-03-17T03:06:25;8.83;;;1.67;;
70842;SDS011;58469;52.312;16.970;2024-03-17T03:09:26;2.80;;;1.37;;
70842;SDS011;58469;52.312;16.970;2024-03-17T03:12:31;5.85;;;1.77;;
70842;SDS011;58469;52.312;16.970;2024-03-17T03:15:31;3.93;;;1.47;;
70842;SDS011;58469;52.312;16.970;2024-03-17T03:18:32;5.90;;;1.40;;
70842;SDS011;58469;52.312;16.970;2024-03-17T03:21:33;6.03;;;1.63;;
70842;SDS011;58469;52.312;16.970;2024-03-17T03:24:33;3.47;;;1.23;;
70842;SDS011;58469;52.312;16.970;2024-03-17T03:27:34;14.57;;;2.23;;
70842;SDS011;58469;52.312;16.970;2024-03-17T03:30:37;6.13;;;1.80;;
70842;SDS011;58469;52.312;16.970;2024-03-17T03:33:38;6.97;;;1.50;;
70842;SDS011;58469;52.312;16.970;2024-03-17T03:36:38;3.37;;;1.70;;
70842;SDS011;58469;52.312;16.970;2024-03-17T03:39:39;6.28;;;1.67;;
70842;SDS011;58469;52.312;16.970;2024-03-17T03:42:39;6.13;;;1.90;;
70842;SDS011;58469;52.312;16.970;2024-03-17T03:45:39;5.63;;;1.83;;
70842;SDS011;58469;52.312;16.970;2024-03-17T03:48:40;5.03;;;2.13;;
70842;SDS011;58469;52.312;16.970;2024-03-17T03:51:40;6.27;;;1.50;;
70842;SDS011;58469;52.312;16.970;2024-03-17T03:54:41;6.77;;;1.73;;
70842;SDS011;58469;52.312;16.970;2024-03-17T03:57:42;6.22;;;1.85;;
70842;SDS011;58469;52.312;16.970;2024-03-17T04:00:46;4.93;;;1.33;;
70842;SDS011;58469;52.312;16.970;2024-03-17T04:03:46;6.10;;;1.80;;
70842;SDS011;58469;52.312;16.970;2024-03-17T04:06:47;3.28;;;1.88;;
70842;SDS011;58469;52.312;16.970;2024-03-17T04:09:48;8.60;;;2.47;;
70842;SDS011;58469;52.312;16.970;2024-03-17T04:12:48;8.27;;;1.73;;
70842;SDS011;58469;52.312;16.970;2024-03-17T04:15:49;5.23;;;1.33;;
70842;SDS011;58469;52.312;16.970;2024-03-17T04:18:49;3.15;;;1.27;;
70842;SDS011;58469;52.312;16.970;2024-03-17T04:21:50;6.00;;;1.57;;
70842;SDS011;58469;52.312;16.970;2024-03-17T04:24:51;5.53;;;1.83;;
70842;SDS011;58469;52.312;16.970;2024-03-17T04:27:56;6.43;;;1.63;;
70842;SDS011;58469;52.312;16.970;2024-03-17T04:31:03;5.80;;;1.63;;
70842;SDS011;58469;52.312;16.970;2024-03-17T04:34:04;6.22;;;1.75;;
70842;SDS011;58469;52.312;16.970;2024-03-17T04:37:04;4.43;;;1.80;;
70842;SDS011;58469;52.312;16.970;2024-03-17T04:40:06;8.97;;;2.23;;
70842;SDS011;58469;52.312;16.970;2024-03-17T04:43:10;6.97;;;1.80;;
70842;SDS011;58469;52.312;16.970;2024-03-17T04:46:10;5.00;;;1.98;;
70842;SDS011;58469;52.312;16.970;2024-03-17T04:49:12;9.93;;;1.63;;
70842;SDS011;58469;52.312;16.970;2024-03-17T04:52:13;9.73;;;1.80;;
70842;SDS011;58469;52.312;16.970;2024-03-17T04:55:15;12.18;;;2.05;;
70842;SDS011;58469;52.312;16.970;2024-03-17T04:58:17;4.20;;;1.73;;
70842;SDS011;58469;52.312;16.970;2024-03-17T05:01:17;7.53;;;1.90;;
70842;SDS011;58469;52.312;16.970;2024-03-17T05:04:17;5.23;;;1.50;;
70842;SDS011;58469;52.312;16.970;2024-03-17T05:07:18;6.07;;;1.90;;
70842;SDS011;58469;52.312;16.970;2024-03-17T05:10:18;6.90;;;2.13;;
70842;SDS011;58469;52.312;16.970;2024-03-17T05:13:18;7.67;;;1.60;;
70842;SDS011;58469;52.312;16.970;2024-03-17T05:16:19;5.00;;;1.60;;
70842;SDS011;58469;52.312;16.970;2024-03-17T05:19:19;6.53;;;1.57;;
70842;SDS011;58469;52.312;16.970;2024-03-17T05:22:20;5.68;;;1.35;;
70842;SDS011;58469;52.312;16.970;2024-03-17T05:25:20;7.63;;;1.50;;
70842;SDS011;58469;52.312;16.970;2024-03-17T05:28:20;4.13;;;1.40;;
70842;SDS011;58469;52.312;16.970;2024-03-17T05:31:21;6.03;;;2.17;;
70842;SDS011;58469;52.312;16.970;2024-03-17T05:34:22;7.38;;;1.50;;
70842;SDS011;58469;52.312;16.970;2024-03-17T05:37:24;4.40;;;1.70;;
70842;SDS011;58469;52.312;16.970;2024-03-17T05:40:24;8.93;;;1.53;;
70842;SDS011;58469;52.312;16.970;2024-03-17T05:43:24;7.07;;;2.50;;
70842;SDS011;58469;52.312;16.970;2024-03-17T05:46:25;3.90;;;1.33;;
70842;SDS011;58469;52.312;16.970;2024-03-17T05:49:26;7.82;;;1.48;;
70842;SDS011;58469;52.312;16.970;2024-03-17T05:52:27;7.23;;;1.40;;
70842;SDS011;58469;52.312;16.970;2024-03-17T05:55:27;9.15;;;1.58;;
70842;SDS011;58469;52.312;16.970;2024-03-17T05:58:28;3.60;;;1.27;;
70842;SDS011;58469;52.312;16.970;2024-03-17T06:01:29;5.60;;;1.70;;
70842;SDS011;58469;52.312;16.970;2024-03-17T06:04:29;7.33;;;1.80;;
70842;SDS011;58469;52.312;16.970;2024-03-17T06:07:30;3.78;;;1.20;;
70842;SDS011;58469;52.312;16.970;2024-03-17T06:10:31;2.63;;;1.75;;
70842;SDS011;58469;52.312;16.970;2024-03-17T06:13:33;4.72;;;1.38;;
70842;SDS011;58469;52.312;16.970;2024-03-17T06:16:33;9.90;;;1.73;;
70842;SDS011;58469;52.312;16.970;2024-03-17T06:19:34;3.73;;;1.30;;
70842;SDS011;58469;52.312;16.970;2024-03-17T06:22:34;4.60;;;1.20;;
70842;SDS011;58469;52.312;16.970;2024-03-17T06:25:39;9.97;;;1.73;;
70842;SDS011;58469;52.312;16.970;2024-03-17T06:28:39;6.60;;;1.60;;
70842;SDS011;58469;52.312;16.970;2024-03-17T06:31:40;5.85;;;2.10;;
70842;SDS011;58469;52.312;16.970;2024-03-17T06:34:40;4.80;;;1.30;;
70842;SDS011;58469;52.312;16.970;2024-03-17T06:37:46;8.90;;;1.93;;
70842;SDS011;58469;52.312;16.970;2024-03-17T06:40:51;6.93;;;1.80;;
70842;SDS011;58469;52.312;16.970;2024-03-17T06:43:52;6.32;;;1.50;;
70842;SDS011;58469;52.312;16.970;2024-03-17T06:46:52;8.13;;;1.67;;
70842;SDS011;58469;52.312;16.970;2024-03-17T06:49:52;7.00;;;1.40;;
70842;SDS011;58469;52.312;16.970;2024-03-17T06:52:53;5.20;;;1.80;;
70842;SDS011;58469;52.312;16.970;2024-03-17T06:55:54;3.63;;;1.83;;
70842;SDS011;58469;52.312;16.970;2024-03-17T06:58:58;6.90;;;1.97;;
70842;SDS011;58469;52.312;16.970;2024-03-17T07:01:59;5.40;;;1.63;;
70842;SDS011;58469;52.312;16.970;2024-03-17T07:04:59;4.55;;;1.60;;
70842;SDS011;58469;52.312;16.970;2024-03-17T07:07:59;5.40;;;1.40;;
70842;SDS011;58469;52.312;16.970;2024-03-17T07:11:00;8.03;;;2.10;;
70842;SDS011;58469;52.312;16.970;2024-03-17T07:14:05;4.30;;;1.73;;
70842;SDS011;58469;52.312;16.970;2024-03-17T07:17:05;5.93;;;2.10;;
70842;SDS011;58469;52.312;16.970;2024-03-17T07:20:07;4.37;;;1.70;;
70842;SDS011;58469;52.312;16.970;2024-03-17T07:23:08;6.35;;;1.67;;
70842;SDS011;58469;52.312;16.970;2024-03-17T07:26:09;6.13;;;1.60;;
70842;SDS011;58469;52.312;16.970;2024-03-17T07:29:09;5.53;;;2.00;;
70842;SDS011;58469;52.312;16.970;2024-03-17T07:32:10;5.80;;;1.55;;
70842;SDS011;58469;52.312;16.970;2024-03-17T07:35:10;5.30;;;1.80;;
70842;SDS011;58469;52.312;16.970;2024-03-17T07:38:11;3.13;;;1.63;;
70842;SDS011;58469;52.312;16.970;2024-03-17T07:41:11;14.30;;;2.70;;
70842;SDS011;58469;52.312;16.970;2024-03-17T07:44:12;7.30;;;2.33;;
70842;SDS011;58469;52.312;16.970;2024-03-17T07:47:12;11.50;;;2.13;;
70842;SDS011;58469;52.312;16.970;2024-03-17T07:50:12;6.80;;;1.93;;
70842;SDS011;58469;52.312;16.970;2024-03-17T07:53:13;4.67;;;1.80;;
70842;SDS011;58469;52.312;16.970;2024-03-17T07:56:14;6.33;;;1.83;;
70842;SDS011;58469;52.312;16.970;2024-03-17T07:59:15;8.82;;;2.92;;
70842;SDS011;58469;52.312;16.970;2024-03-17T08:02:17;5.50;;;2.07;;
70842;SDS011;58469;52.312;16.970;2024-03-17T08:05:18;4.13;;;2.03;;
70842;SDS011;58469;52.312;16.970;2024-03-17T08:08:19;6.57;;;1.97;;
70842;SDS011;58469;52.312;16.970;2024-03-17T08:11:19;4.13;;;1.80;;
70842;SDS011;58469;52.312;16.970;2024-03-17T08:14:20;5.75;;;1.65;;
70842;SDS011;58469;52.312;16.970;2024-03-17T08:17:20;2.90;;;1.30;;
70842;SDS011;58469;52.312;16.970;2024-03-17T08:20:20;4.53;;;1.73;;
70842;SDS011;58469;52.312;16.970;2024-03-17T08:23:21;1.80;;;1.63;;
70842;SDS011;58469;52.312;16.970;2024-03-17T08:26:23;3.97;;;1.70;;
70842;SDS011;58469;52.312;16.970;2024-03-17T08:29:23;3.57;;;2.13;;
70842;SDS011;58469;52.312;16.970;2024-03-17T08:32:24;2.77;;;1.80;;
70842;SDS011;58469;52.312;16.970;2024-03-17T08:35:24;5.17;;;1.60;;
70842;SDS011;58469;52.312;16.970;2024-03-17T08:38:25;3.45;;;1.48;;
70842;SDS011;58469;52.312;16.970;2024-03-17T08:41:29;3.40;;;1.80;;
70842;SDS011;58469;52.312;16.970;2024-03-17T08:44:31;3.63;;;1.77;;
70842;SDS011;58469;52.312;16.970;2024-03-17T08:47:31;3.00;;;1.93;;
70842;SDS011;58469;52.312;16.970;2024-03-17T08:50:32;3.30;;;2.33;;
70842;SDS011;58469;52.312;16.970;2024-03-17T08:53:34;4.50;;;1.90;;
70842;SDS011;58469;52.312;16.970;2024-03-17T08:56:34;7.88;;;2.63;;
70842;SDS011;58469;52.312;16.970;2024-03-17T08:59:35;3.03;;;1.60;;
70842;SDS011;58469;52.312;16.970;2024-03-17T09:02:36;3.23;;;1.70;;
70842;SDS011;58469;52.312;16.970;2024-03-17T09:05:36;5.80;;;2.67;;
70842;SDS011;58469;52.312;16.970;2024-03-17T09:08:37;6.72;;;2.42;;
70842;SDS011;58469;52.312;16.970;2024-03-17T09:11:37;3.80;;;1.70;;
70842;SDS011;58469;52.312;16.970;2024-03-17T09:14:38;3.83;;;2.90;;
70842;SDS011;58469;52.312;16.970;2024-03-17T09:17:40;4.00;;;2.28;;
70842;SDS011;58469;52.312;16.970;2024-03-17T09:20:41;6.97;;;2.17;;
70842;SDS011;58469;52.312;16.970;2024-03-17T09:23:42;4.28;;;2.03;;
70842;SDS011;58469;52.312;16.970;2024-03-17T09:26:42;3.57;;;1.90;;
70842;SDS011;58469;52.312;16.970;2024-03-17T09:29:42;4.27;;;2.37;;
70842;SDS011;58469;52.312;16.970;2024-03-17T09:32:43;4.20;;;1.80;;
70842;SDS011;58469;52.312;16.970;2024-03-17T09:35:43;4.10;;;2.27;;
70842;SDS011;58469;52.312;16.970;2024-03-17T09:38:44;4.33;;;2.37;;
70842;SDS011;58469;52.312;16.970;2024-03-17T09:41:46;3.58;;;2.25;;
70842;SDS011;58469;52.312;16.970;2024-03-17T09:44:47;2.97;;;1.80;;
70842;SDS011;58469;52.312;16.970;2024-03-17T09:47:49;3.28;;;1.98;;
70842;SDS011;58469;52.312;16.970;2024-03-17T09:50:50;5.83;;;2.93;;
70842;SDS011;58469;52.312;16.970;2024-03-17T09:53:55;4.78;;;2.85;;
70842;SDS011;58469;52.312;16.970;2024-03-17T09:56:55;5.77;;;2.47;;
70842;SDS011;58469;52.312;16.970;2024-03-17T09:59:55;4.47;;;2.30;;
70842;SDS011;58469;52.312;16.970;2024-03-17T10:02:56;3.83;;;2.03;;
70842;SDS011;58469;52.312;16.970;2024-03-17T10:05:59;4.83;;;2.50;;
70842;SDS011;58469;52.312;16.970;2024-03-17T10:09:00;4.47;;;2.70;;
70842;SDS011;58469;52.312;16.970;2024-03-17T10:12:28;6.60;;;3.20;;
70842;SDS011;58469;52.312;16.970;2024-03-17T10:15:29;4.60;;;2.78;;
70842;SDS011;58469;52.312;16.970;2024-03-17T10:18:29;5.37;;;2.60;;
70842;SDS011;58469;52.312;16.970;2024-03-17T10:21:31;7.70;;;2.60;;
70842;SDS011;58469;52.312;16.970;2024-03-17T10:24:31;6.13;;;2.43;;
70842;SDS011;58469;52.312;16.970;2024-03-17T10:27:33;6.28;;;2.40;;
70842;SDS011;58469;52.312;16.970;2024-03-17T10:30:34;5.43;;;2.00;;
70842;SDS011;58469;52.312;16.970;2024-03-17T10:33:34;3.10;;;1.90;;
70842;SDS011;58469;52.312;16.970;2024-03-17T10:36:34;5.23;;;2.23;;
70842;SDS011;58469;52.312;16.970;2024-03-17T10:39:35;4.75;;;2.45;;
70842;SDS011;58469;52.312;16.970;2024-03-17T10:42:35;5.30;;;3.07;;
70842;SDS011;58469;52.312;16.970;2024-03-17T10:45:38;3.33;;;2.03;;
70842;SDS011;58469;52.312;16.970;2024-03-17T10:48:41;3.63;;;1.88;;
70842;SDS011;58469;52.312;16.970;2024-03-17T10:51:43;3.42;;;1.83;;
70842;SDS011;58469;52.312;16.970;2024-03-17T10:54:51;1.50;;;1.40;;
70842;SDS011;58469;52.312;16.970;2024-03-17T10:57:54;2.50;;;1.43;;
70842;SDS011;58469;52.312;16.970;2024-03-17T11:00:58;1.75;;;1.50;;
70842;SDS011;58469;52.312;16.970;2024-03-17T11:04:01;4.40;;;1.75;;
70842;SDS011;58469;52.312;16.970;2024-03-17T11:07:05;2.50;;;1.80;;
70842;SDS011;58469;52.312;16.970;2024-03-17T11:10:20;4.38;;;1.80;;
70842;SDS011;58469;52.312;16.970;2024-03-17T11:13:26;3.17;;;2.17;;
70842;SDS011;58469;52.312;16.970;2024-03-17T11:16:28;2.58;;;2.10;;
70842;SDS011;58469;52.312;16.970;2024-03-17T11:19:28;4.40;;;2.25;;
70842;SDS011;58469;52.312;16.970;2024-03-17T11:22:42;4.03;;;2.57;;
70842;SDS011;58469;52.312;16.970;2024-03-17T11:25:45;6.50;;;3.15;;
70842;SDS011;58469;52.312;16.970;2024-03-17T11:28:52;3.22;;;2.40;;
70842;SDS011;58469;52.312;16.970;2024-03-17T11:31:53;7.10;;;2.80;;
70842;SDS011;58469;52.312;16.970;2024-03-17T11:35:12;3.63;;;2.17;;
70842;SDS011;58469;52.312;16.970;2024-03-17T11:38:50;3.50;;;2.15;;
70842;SDS011;58469;52.312;16.970;2024-03-17T11:41:51;3.25;;;2.20;;
70842;SDS011;58469;52.312;16.970;2024-03-17T11:45:00;3.50;;;2.67;;
70842;SDS011;58469;52.312;16.970;2024-03-17T11:48:12;2.63;;;1.88;;
70842;SDS011;58469;52.312;16.970;2024-03-17T11:51:15;2.38;;;2.00;;
70842;SDS011;58469;52.312;16.970;2024-03-17T11:54:20;2.73;;;1.97;;
70842;SDS011;58469;52.312;16.970;2024-03-17T11:57:22;2.63;;;1.83;;
70842;SDS011;58469;52.312;16.970;2024-03-17T12:00:24;2.20;;;1.50;;
70842;SDS011;58469;52.312;16.970;2024-03-17T12:03:25;2.73;;;1.90;;
70842;SDS011;58469;52.312;16.970;2024-03-17T12:06:26;3.67;;;2.20;;
70842;SDS011;58469;52.312;16.970;2024-03-17T12:09:30;3.40;;;1.70;;
70842;SDS011;58469;52.312;16.970;2024-03-17T12:12:31;3.05;;;2.22;;
70842;SDS011;58469;52.312;16.970;2024-03-17T12:15:35;3.58;;;2.58;;
70842;SDS011;58469;52.312;16.970;2024-03-17T12:18:35;3.60;;;2.20;;
70842;SDS011;58469;52.312;16.970;2024-03-17T12:21:40;3.70;;;2.23;;
70842;SDS011;58469;52.312;16.970;2024-03-17T12:24:43;6.18;;;3.15;;
70842;SDS011;58469;52.312;16.970;2024-03-17T12:27:44;5.15;;;3.25;;
70842;SDS011;58469;52.312;16.970;2024-03-17T12:30:46;3.85;;;2.70;;
70842;SDS011;58469;52.312;16.970;2024-03-17T12:33:47;3.30;;;2.22;;
70842;SDS011;58469;52.312;16.970;2024-03-17T12:36:48;4.30;;;2.47;;
70842;SDS011;58469;52.312;16.970;2024-03-17T12:39:51;3.97;;;2.42;;
70842;SDS011;58469;52.312;16.970;2024-03-17T12:42:53;5.40;;;2.50;;
70842;SDS011;58469;52.312;16.970;2024-03-17T12:45:57;2.92;;;1.80;;
70842;SDS011;58469;52.312;16.970;2024-03-17T12:48:59;3.38;;;1.70;;
70842;SDS011;58469;52.312;16.970;2024-03-17T12:51:59;3.30;;;1.98;;
70842;SDS011;58469;52.312;16.970;2024-03-17T12:55:01;1.77;;;1.58;;
70842;SDS011;58469;52.312;16.970;2024-03-17T12:58:27;3.37;;;1.97;;
70842;SDS011;58469;52.312;16.970;2024-03-17T13:01:46;3.33;;;2.17;;
70842;SDS011;58469;52.312;16.970;2024-03-17T13:04:47;2.97;;;2.00;;
70842;SDS011;58469;52.312;16.970;2024-03-17T13:07:47;2.03;;;1.53;;
70842;SDS011;58469;52.312;16.970;2024-03-17T13:10:48;1.65;;;0.90;;
70842;SDS011;58469;52.312;16.970;2024-03-17T13:13:49;1.50;;;1.40;;
70842;SDS011;58469;52.312;16.970;2024-03-17T13:16:53;1.33;;;1.23;;
70842;SDS011;58469;52.312;16.970;2024-03-17T13:19:53;1.13;;;1.03;;
70842;SDS011;58469;52.312;16.970;2024-03-17T13:22:53;1.17;;;1.10;;
70842;SDS011;58469;52.312;16.970;2024-03-17T13:25:54;1.10;;;1.00;;
70842;SDS011;58469;52.312;16.970;2024-03-17T13:28:54;1.60;;;1.00;;
70842;SDS011;58469;52.312;16.970;2024-03-17T13:31:55;2.57;;;1.10;;
70842;SDS011;58469;52.312;16.970;2024-03-17T13:34:55;1.43;;;0.80;;
70842;SDS011;58469;52.312;16.970;2024-03-17T13:37:56;2.10;;;1.13;;
70842;SDS011;58469;52.312;16.970;2024-03-17T13:41:02;1.25;;;1.13;;
70842;SDS011;58469;52.312;16.970;2024-03-17T13:44:04;1.00;;;0.90;;
70842;SDS011;58469;52.312;16.970;2024-03-17T13:47:05;2.78;;;0.93;;
70842;SDS011;58469;52.312;16.970;2024-03-17T13:50:06;1.40;;;0.77;;
70842;SDS011;58469;52.312;16.970;2024-03-17T13:53:10;3.10;;;1.60;;
70842;SDS011;58469;52.312;16.970;2024-03-17T13:56:11;1.47;;;1.30;;
70842;SDS011;58469;52.312;16.970;2024-03-17T13:59:13;0.77;;;0.77;;
70842;SDS011;58469;52.312;16.970;2024-03-17T14:02:16;1.20;;;1.10;;
70842;SDS011;58469;52.312;16.970;2024-03-17T14:05:17;1.60;;;1.05;;
70842;SDS011;58469;52.312;16.970;2024-03-17T14:08:18;1.93;;;1.13;;
70842;SDS011;58469;52.312;16.970;2024-03-17T14:11:19;0.90;;;0.90;;
70842;SDS011;58469;52.312;16.970;2024-03-17T14:14:19;1.30;;;1.20;;
70842;SDS011;58469;52.312;16.970;2024-03-17T14:17:20;1.13;;;0.70;;
70842;SDS011;58469;52.312;16.970;2024-03-17T14:20:20;2.00;;;1.00;;
70842;SDS011;58469;52.312;16.970;2024-03-17T14:23:21;0.53;;;0.53;;
70842;SDS011;58469;52.312;16.970;2024-03-17T14:26:21;3.10;;;0.68;;
70842;SDS011;58469;52.312;16.970;2024-03-17T14:29:22;2.47;;;0.97;;
70842;SDS011;58469;52.312;16.970;2024-03-17T14:32:23;0.80;;;0.80;;
70842;SDS011;58469;52.312;16.970;2024-03-17T14:35:23;0.88;;;0.77;;
70842;SDS011;58469;52.312;16.970;2024-03-17T14:38:26;1.13;;;0.88;;
70842;SDS011;58469;52.312;16.970;2024-03-17T14:41:27;0.80;;;0.73;;
70842;SDS011;58469;52.312;16.970;2024-03-17T14:44:29;1.33;;;1.15;;
70842;SDS011;58469;52.312;16.970;2024-03-17T14:47:29;1.80;;;0.93;;
70842;SDS011;58469;52.312;16.970;2024-03-17T14:50:29;1.50;;;0.97;;
70842;SDS011;58469;52.312;16.970;2024-03-17T14:53:31;1.15;;;1.00;;
70842;SDS011;58469;52.312;16.970;2024-03-17T14:56:31;3.08;;;1.15;;
70842;SDS011;58469;52.312;16.970;2024-03-17T14:59:31;1.17;;;0.60;;
70842;SDS011;58469;52.312;16.970;2024-03-17T15:02:32;0.80;;;0.80;;
70842;SDS011;58469;52.312;16.970;2024-03-17T15:05:32;0.50;;;0.50;;
70842;SDS011;58469;52.312;16.970;2024-03-17T15:08:33;1.67;;;0.80;;
70842;SDS011;58469;52.312;16.970;2024-03-17T15:11:33;0.80;;;0.70;;
70842;SDS011;58469;52.312;16.970;2024-03-17T15:14:34;1.38;;;0.88;;
70842;SDS011;58469;52.312;16.970;2024-03-17T15:17:37;0.87;;;0.80;;
70842;SDS011;58469;52.312;16.970;2024-03-17T15:20:38;0.57;;;0.57;;
70842;SDS011;58469;52.312;16.970;2024-03-17T15:23:38;1.10;;;1.10;;
70842;SDS011;58469;52.312;16.970;2024-03-17T15:26:39;0.70;;;0.70;;
70842;SDS011;58469;52.312;16.970;2024-03-17T15:29:40;0.93;;;0.70;;
70842;SDS011;58469;52.312;16.970;2024-03-17T15:32:41;0.97;;;0.73;;
70842;SDS011;58469;52.312;16.970;2024-03-17T15:35:43;1.05;;;1.05;;
70842;SDS011;58469;52.312;16.970;2024-03-17T15:38:44;1.80;;;0.90;;
70842;SDS011;58469;52.312;16.970;2024-03-17T15:41:45;1.37;;;0.90;;
70842;SDS011;58469;52.312;16.970;2024-03-17T15:44:47;1.10;;;1.10;;
70842;SDS011;58469;52.312;16.970;2024-03-17T15:47:47;1.55;;;1.10;;
70842;SDS011;58469;52.312;16.970;2024-03-17T15:50:55;0.60;;;0.60;;
70842;SDS011;58469;52.312;16.970;2024-03-17T15:53:56;0.60;;;0.60;;
70842;SDS011;58469;52.312;16.970;2024-03-17T15:56:57;0.73;;;0.73;;
70842;SDS011;58469;52.312;16.970;2024-03-17T15:59:57;1.17;;;0.60;;
70842;SDS011;58469;52.312;16.970;2024-03-17T16:02:58;1.38;;;1.00;;
70842;SDS011;58469;52.312;16.970;2024-03-17T16:06:18;1.07;;;0.90;;
70842;SDS011;58469;52.312;16.970;2024-03-17T16:09:21;0.77;;;0.77;;
70842;SDS011;58469;52.312;16.970;2024-03-17T16:12:22;1.10;;;0.83;;
70842;SDS011;58469;52.312;16.970;2024-03-17T16:15:23;1.33;;;1.20;;
70842;SDS011;58469;52.312;16.970;2024-03-17T16:18:24;2.07;;;1.37;;
70842;SDS011;58469;52.312;16.970;2024-03-17T16:21:26;1.58;;;1.10;;
70842;SDS011;58469;52.312;16.970;2024-03-17T16:24:26;1.60;;;1.50;;
70842;SDS011;58469;52.312;16.970;2024-03-17T16:27:27;1.30;;;1.20;;
70842;SDS011;58469;52.312;16.970;2024-03-17T16:30:28;3.70;;;1.05;;
70842;SDS011;58469;52.312;16.970;2024-03-17T16:33:28;2.28;;;1.40;;
70842;SDS011;58469;52.312;16.970;2024-03-17T16:36:31;1.80;;;1.70;;
70842;SDS011;58469;52.312;16.970;2024-03-17T16:39:32;1.48;;;1.17;;
70842;SDS011;58469;52.312;16.970;2024-03-17T16:42:33;1.63;;;1.00;;
70842;SDS011;58469;52.312;16.970;2024-03-17T16:45:33;2.47;;;0.90;;
70842;SDS011;58469;52.312;16.970;2024-03-17T16:48:39;1.13;;;0.88;;
70842;SDS011;58469;52.312;16.970;2024-03-17T16:51:40;1.17;;;0.90;;
70842;SDS011;58469;52.312;16.970;2024-03-17T16:54:41;2.30;;;1.40;;
70842;SDS011;58469;52.312;16.970;2024-03-17T16:57:42;2.33;;;1.02;;
70842;SDS011;58469;52.312;16.970;2024-03-17T17:00:42;1.70;;;1.00;;
70842;SDS011;58469;52.312;16.970;2024-03-17T17:03:42;1.87;;;1.10;;
70842;SDS011;58469;52.312;16.970;2024-03-17T17:06:43;1.00;;;0.90;;
70842;SDS011;58469;52.312;16.970;2024-03-17T17:09:44;0.95;;;0.85;;
70842;SDS011;58469;52.312;16.970;2024-03-17T17:12:44;1.20;;;1.10;;
70842;SDS011;58469;52.312;16.970;2024-03-17T17:15:45;1.50;;;1.10;;
70842;SDS011;58469;52.312;16.970;2024-03-17T17:18:49;1.73;;;1.40;;
70842;SDS011;58469;52.312;16.970;2024-03-17T17:21:52;1.77;;;1.20;;
70842;SDS011;58469;52.312;16.970;2024-03-17T17:24:52;1.80;;;1.40;;
70842;SDS011;58469;52.312;16.970;2024-03-17T17:27:54;1.50;;;1.35;;
70842;SDS011;58469;52.312;16.970;2024-03-17T17:30:54;3.20;;;1.77;;
70842;SDS011;58469;52.312;16.970;2024-03-17T17:33:55;2.30;;;1.20;;
70842;SDS011;58469;52.312;16.970;2024-03-17T17:36:56;1.30;;;1.10;;
70842;SDS011;58469;52.312;16.970;2024-03-17T17:39:57;1.47;;;1.00;;
70842;SDS011;58469;52.312;16.970;2024-03-17T17:42:57;1.40;;;1.30;;
70842;SDS011;58469;52.312;16.970;2024-03-17T17:45:58;1.57;;;1.40;;
70842;SDS011;58469;52.312;16.970;2024-03-17T17:49:01;1.33;;;1.20;;
70842;SDS011;58469;52.312;16.970;2024-03-17T17:52:02;1.90;;;1.30;;
70842;SDS011;58469;52.312;16.970;2024-03-17T17:55:03;1.90;;;1.60;;
70842;SDS011;58469;52.312;16.970;2024-03-17T17:58:04;3.60;;;1.25;;